sensor_id;sensor_type;location;lat;lon;timestamp;P1;durP1;ratioP1;P2;durP2;ratioP2
8349;SDS011;60699;48.946;8.412;2022-09-03T00:01:34;3.47;;;3.27;;
8349;SDS011;60699;48.946;8.412;2022-09-03T00:04:05;2.83;;;2.60;;
8349;SDS011;60699;48.946;8.412;2022-09-03T00:06:35;3.87;;;3.00;;
8349;SDS011;60699;48.946;8.412;2022-09-03T00:09:04;3.67;;;3.23;;
8349;SDS011;60699;48.946;8.412;2022-09-03T00:11:34;3.07;;;2.83;;
8349;SDS011;60699;48.946;8.412;2022-09-03T00:14:04;3.53;;;3.33;;
8349;SDS011;60699;48.946;8.412;2022-09-03T00:16:34;3.70;;;3.50;;
8349;SDS011;60699;48.946;8.412;2022-09-03T00:19:06;3.47;;;3.20;;
8349;SDS011;60699;48.946;8.412;2022-09-03T00:21:36;3.57;;;3.27;;
8349;SDS011;60699;48.946;8.412;2022-09-03T00:24:04;3.60;;;3.00;;
8349;SDS011;60699;48.946;8.412;2022-09-03T00:26:33;3.53;;;3.23;;
8349;SDS011;60699;48.946;8.412;2022-09-03T00:29:02;3.33;;;3.00;;
8349;SDS011;60699;48.946;8.412;2022-09-03T00:31:31;4.50;;;2.83;;
8349;SDS011;60699;48.946;8.412;2022-09-03T00:34:01;4.00;;;3.60;;
8349;SDS011;60699;48.946;8.412;2022-09-03T00:36:33;3.47;;;3.27;;
8349;SDS011;60699;48.946;8.412;2022-09-03T00:39:01;3.10;;;2.90;;
8349;SDS011;60699;48.946;8.412;2022-09-03T00:41:31;3.80;;;3.20;;
8349;SDS011;60699;48.946;8.412;2022-09-03T00:44:07;3.30;;;3.10;;
8349;SDS011;60699;48.946;8.412;2022-09-03T00:46:37;3.73;;;3.43;;
8349;SDS011;60699;48.946;8.412;2022-09-03T00:49:23;4.00;;;2.93;;
8349;SDS011;60699;48.946;8.412;2022-09-03T00:51:54;3.13;;;2.83;;
8349;SDS011;60699;48.946;8.412;2022-09-03T00:54:26;3.20;;;2.97;;
8349;SDS011;60699;48.946;8.412;2022-09-03T00:57:02;3.70;;;2.63;;
8349;SDS011;60699;48.946;8.412;2022-09-03T00:59:31;3.50;;;3.30;;
8349;SDS011;60699;48.946;8.412;2022-09-03T01:02:04;3.63;;;3.33;;
8349;SDS011;60699;48.946;8.412;2022-09-03T01:04:34;2.80;;;2.60;;
8349;SDS011;60699;48.946;8.412;2022-09-03T01:07:08;2.90;;;2.70;;
8349;SDS011;60699;48.946;8.412;2022-09-03T01:09:44;4.23;;;3.93;;
8349;SDS011;60699;48.946;8.412;2022-09-03T01:12:14;3.30;;;3.10;;
8349;SDS011;60699;48.946;8.412;2022-09-03T01:14:46;3.50;;;3.20;;
8349;SDS011;60699;48.946;8.412;2022-09-03T01:17:15;3.40;;;3.20;;
8349;SDS011;60699;48.946;8.412;2022-09-03T01:19:51;6.83;;;2.93;;
8349;SDS011;60699;48.946;8.412;2022-09-03T01:22:30;3.90;;;3.60;;
8349;SDS011;60699;48.946;8.412;2022-09-03T01:25:11;3.50;;;3.30;;
8349;SDS011;60699;48.946;8.412;2022-09-03T01:27:44;3.33;;;3.13;;
8349;SDS011;60699;48.946;8.412;2022-09-03T01:30:13;3.93;;;3.40;;
8349;SDS011;60699;48.946;8.412;2022-09-03T01:32:43;2.73;;;2.53;;
8349;SDS011;60699;48.946;8.412;2022-09-03T01:35:12;3.87;;;3.17;;
8349;SDS011;60699;48.946;8.412;2022-09-03T01:37:46;3.50;;;3.20;;
8349;SDS011;60699;48.946;8.412;2022-09-03T01:40:20;3.40;;;3.20;;
8349;SDS011;60699;48.946;8.412;2022-09-03T01:42:53;3.40;;;2.87;;
8349;SDS011;60699;48.946;8.412;2022-09-03T01:45:30;3.60;;;3.20;;
8349;SDS011;60699;48.946;8.412;2022-09-03T01:48:03;4.23;;;3.93;;
8349;SDS011;60699;48.946;8.412;2022-09-03T01:50:37;4.10;;;3.80;;
8349;SDS011;60699;48.946;8.412;2022-09-03T01:53:06;3.73;;;3.43;;
8349;SDS011;60699;48.946;8.412;2022-09-03T01:55:41;3.83;;;3.63;;
8349;SDS011;60699;48.946;8.412;2022-09-03T01:58:10;4.37;;;3.97;;
8349;SDS011;60699;48.946;8.412;2022-09-03T02:00:42;3.73;;;3.53;;
8349;SDS011;60699;48.946;8.412;2022-09-03T02:03:10;4.03;;;3.60;;
8349;SDS011;60699;48.946;8.412;2022-09-03T02:05:37;3.80;;;3.60;;
8349;SDS011;60699;48.946;8.412;2022-09-03T02:08:08;3.07;;;2.87;;
8349;SDS011;60699;48.946;8.412;2022-09-03T02:10:37;3.40;;;3.10;;
8349;SDS011;60699;48.946;8.412;2022-09-03T02:13:05;3.53;;;3.23;;
8349;SDS011;60699;48.946;8.412;2022-09-03T02:15:34;4.50;;;3.30;;
8349;SDS011;60699;48.946;8.412;2022-09-03T02:18:04;3.80;;;3.53;;
8349;SDS011;60699;48.946;8.412;2022-09-03T02:20:31;3.23;;;2.93;;
8349;SDS011;60699;48.946;8.412;2022-09-03T02:22:58;3.60;;;3.40;;
8349;SDS011;60699;48.946;8.412;2022-09-03T02:25:28;3.70;;;3.50;;
8349;SDS011;60699;48.946;8.412;2022-09-03T02:27:56;3.67;;;3.30;;
8349;SDS011;60699;48.946;8.412;2022-09-03T02:30:25;3.67;;;3.47;;
8349;SDS011;60699;48.946;8.412;2022-09-03T02:32:52;4.07;;;3.63;;
8349;SDS011;60699;48.946;8.412;2022-09-03T02:35:20;3.30;;;3.10;;
8349;SDS011;60699;48.946;8.412;2022-09-03T02:37:47;3.80;;;3.10;;
8349;SDS011;60699;48.946;8.412;2022-09-03T02:40:14;3.60;;;3.30;;
8349;SDS011;60699;48.946;8.412;2022-09-03T02:42:41;3.57;;;3.27;;
8349;SDS011;60699;48.946;8.412;2022-09-03T02:45:12;3.47;;;3.03;;
8349;SDS011;60699;48.946;8.412;2022-09-03T02:47:42;3.40;;;3.10;;
8349;SDS011;60699;48.946;8.412;2022-09-03T02:50:10;3.43;;;3.00;;
8349;SDS011;60699;48.946;8.412;2022-09-03T02:52:38;3.87;;;3.57;;
8349;SDS011;60699;48.946;8.412;2022-09-03T02:55:06;3.43;;;3.23;;
8349;SDS011;60699;48.946;8.412;2022-09-03T02:57:33;3.13;;;2.93;;
8349;SDS011;60699;48.946;8.412;2022-09-03T03:00:00;4.00;;;3.77;;
8349;SDS011;60699;48.946;8.412;2022-09-03T03:02:27;4.03;;;3.30;;
8349;SDS011;60699;48.946;8.412;2022-09-03T03:04:54;4.30;;;3.90;;
8349;SDS011;60699;48.946;8.412;2022-09-03T03:07:21;3.53;;;3.30;;
8349;SDS011;60699;48.946;8.412;2022-09-03T03:09:49;4.00;;;3.63;;
8349;SDS011;60699;48.946;8.412;2022-09-03T03:12:16;3.60;;;3.30;;
8349;SDS011;60699;48.946;8.412;2022-09-03T03:14:43;5.63;;;3.50;;
8349;SDS011;60699;48.946;8.412;2022-09-03T03:17:10;3.83;;;3.63;;
8349;SDS011;60699;48.946;8.412;2022-09-03T03:19:37;7.17;;;3.70;;
8349;SDS011;60699;48.946;8.412;2022-09-03T03:22:04;4.67;;;4.37;;
8349;SDS011;60699;48.946;8.412;2022-09-03T03:24:31;3.77;;;3.47;;
8349;SDS011;60699;48.946;8.412;2022-09-03T03:27:00;3.63;;;3.43;;
8349;SDS011;60699;48.946;8.412;2022-09-03T03:29:30;3.30;;;3.10;;
8349;SDS011;60699;48.946;8.412;2022-09-03T03:31:58;6.90;;;3.80;;
8349;SDS011;60699;48.946;8.412;2022-09-03T03:34:25;5.27;;;4.10;;
8349;SDS011;60699;48.946;8.412;2022-09-03T03:36:52;3.90;;;3.60;;
8349;SDS011;60699;48.946;8.412;2022-09-03T03:39:19;4.97;;;4.03;;
8349;SDS011;60699;48.946;8.412;2022-09-03T03:41:46;3.83;;;3.57;;
8349;SDS011;60699;48.946;8.412;2022-09-03T03:44:15;6.43;;;4.73;;
8349;SDS011;60699;48.946;8.412;2022-09-03T03:46:44;4.40;;;4.00;;
8349;SDS011;60699;48.946;8.412;2022-09-03T03:49:11;3.70;;;3.40;;
8349;SDS011;60699;48.946;8.412;2022-09-03T03:51:38;6.23;;;3.50;;
8349;SDS011;60699;48.946;8.412;2022-09-03T03:54:05;4.13;;;3.83;;
8349;SDS011;60699;48.946;8.412;2022-09-03T03:56:33;4.00;;;3.70;;
8349;SDS011;60699;48.946;8.412;2022-09-03T03:59:00;4.33;;;3.90;;
8349;SDS011;60699;48.946;8.412;2022-09-03T04:01:29;4.57;;;4.17;;
8349;SDS011;60699;48.946;8.412;2022-09-03T04:03:56;4.53;;;4.13;;
8349;SDS011;60699;48.946;8.412;2022-09-03T04:06:24;4.03;;;3.73;;
8349;SDS011;60699;48.946;8.412;2022-09-03T04:08:51;4.40;;;4.00;;
8349;SDS011;60699;48.946;8.412;2022-09-03T04:11:19;3.70;;;3.40;;
8349;SDS011;60699;48.946;8.412;2022-09-03T04:13:46;4.70;;;4.37;;
8349;SDS011;60699;48.946;8.412;2022-09-03T04:16:14;3.60;;;3.40;;
8349;SDS011;60699;48.946;8.412;2022-09-03T04:18:43;4.70;;;4.23;;
8349;SDS011;60699;48.946;8.412;2022-09-03T04:21:11;4.23;;;3.93;;
8349;SDS011;60699;48.946;8.412;2022-09-03T04:23:39;4.57;;;4.27;;
8349;SDS011;60699;48.946;8.412;2022-09-03T04:26:07;3.67;;;3.40;;
8349;SDS011;60699;48.946;8.412;2022-09-03T04:28:34;4.73;;;3.73;;
8349;SDS011;60699;48.946;8.412;2022-09-03T04:31:02;5.37;;;3.60;;
8349;SDS011;60699;48.946;8.412;2022-09-03T04:33:29;4.53;;;4.00;;
8349;SDS011;60699;48.946;8.412;2022-09-03T04:36:05;3.73;;;3.47;;
8349;SDS011;60699;48.946;8.412;2022-09-03T04:38:32;4.60;;;4.20;;
8349;SDS011;60699;48.946;8.412;2022-09-03T04:41:00;4.30;;;4.00;;
8349;SDS011;60699;48.946;8.412;2022-09-03T04:43:27;3.97;;;3.67;;
8349;SDS011;60699;48.946;8.412;2022-09-03T04:45:55;4.30;;;4.00;;
8349;SDS011;60699;48.946;8.412;2022-09-03T04:48:23;4.87;;;4.00;;
8349;SDS011;60699;48.946;8.412;2022-09-03T04:50:50;4.57;;;4.20;;
8349;SDS011;60699;48.946;8.412;2022-09-03T04:53:18;7.03;;;4.20;;
8349;SDS011;60699;48.946;8.412;2022-09-03T04:55:45;4.13;;;3.83;;
8349;SDS011;60699;48.946;8.412;2022-09-03T04:58:12;4.40;;;3.20;;
8349;SDS011;60699;48.946;8.412;2022-09-03T05:00:39;4.47;;;4.17;;
8349;SDS011;60699;48.946;8.412;2022-09-03T05:03:06;3.27;;;3.07;;
8349;SDS011;60699;48.946;8.412;2022-09-03T05:05:33;4.00;;;3.70;;
8349;SDS011;60699;48.946;8.412;2022-09-03T05:08:00;3.63;;;3.33;;
8349;SDS011;60699;48.946;8.412;2022-09-03T05:10:29;4.90;;;4.47;;
8349;SDS011;60699;48.946;8.412;2022-09-03T05:12:57;4.93;;;4.37;;
8349;SDS011;60699;48.946;8.412;2022-09-03T05:15:24;3.57;;;3.37;;
8349;SDS011;60699;48.946;8.412;2022-09-03T05:17:54;4.40;;;4.00;;
8349;SDS011;60699;48.946;8.412;2022-09-03T05:20:21;3.60;;;3.30;;
8349;SDS011;60699;48.946;8.412;2022-09-03T05:22:49;3.80;;;3.50;;
8349;SDS011;60699;48.946;8.412;2022-09-03T05:25:16;3.87;;;3.57;;
8349;SDS011;60699;48.946;8.412;2022-09-03T05:27:44;3.90;;;3.60;;
8349;SDS011;60699;48.946;8.412;2022-09-03T05:30:11;3.10;;;2.80;;
8349;SDS011;60699;48.946;8.412;2022-09-03T05:32:39;3.93;;;3.57;;
8349;SDS011;60699;48.946;8.412;2022-09-03T05:35:07;3.57;;;3.30;;
8349;SDS011;60699;48.946;8.412;2022-09-03T05:37:34;4.17;;;3.77;;
8349;SDS011;60699;48.946;8.412;2022-09-03T05:40:02;6.23;;;4.00;;
8349;SDS011;60699;48.946;8.412;2022-09-03T05:42:29;3.30;;;3.10;;
8349;SDS011;60699;48.946;8.412;2022-09-03T05:45:04;4.10;;;3.80;;
8349;SDS011;60699;48.946;8.412;2022-09-03T05:47:33;3.90;;;3.60;;
8349;SDS011;60699;48.946;8.412;2022-09-03T05:50:01;3.20;;;3.00;;
8349;SDS011;60699;48.946;8.412;2022-09-03T05:52:28;4.17;;;3.57;;
8349;SDS011;60699;48.946;8.412;2022-09-03T05:54:55;4.20;;;3.80;;
8349;SDS011;60699;48.946;8.412;2022-09-03T05:57:22;3.27;;;3.00;;
8349;SDS011;60699;48.946;8.412;2022-09-03T05:59:49;3.00;;;2.80;;
8349;SDS011;60699;48.946;8.412;2022-09-03T06:02:18;3.93;;;3.17;;
8349;SDS011;60699;48.946;8.412;2022-09-03T06:04:45;3.63;;;3.33;;
8349;SDS011;60699;48.946;8.412;2022-09-03T06:07:12;3.87;;;3.50;;
8349;SDS011;60699;48.946;8.412;2022-09-03T06:09:40;3.57;;;3.27;;
8349;SDS011;60699;48.946;8.412;2022-09-03T06:12:07;3.83;;;3.53;;
8349;SDS011;60699;48.946;8.412;2022-09-03T06:14:34;4.20;;;3.80;;
8349;SDS011;60699;48.946;8.412;2022-09-03T06:17:01;3.87;;;3.47;;
8349;SDS011;60699;48.946;8.412;2022-09-03T06:19:29;3.60;;;3.30;;
8349;SDS011;60699;48.946;8.412;2022-09-03T06:21:56;4.50;;;3.90;;
8349;SDS011;60699;48.946;8.412;2022-09-03T06:24:23;3.70;;;3.50;;
8349;SDS011;60699;48.946;8.412;2022-09-03T06:26:51;3.40;;;3.10;;
8349;SDS011;60699;48.946;8.412;2022-09-03T06:29:18;4.60;;;3.70;;
8349;SDS011;60699;48.946;8.412;2022-09-03T06:31:46;3.60;;;3.30;;
8349;SDS011;60699;48.946;8.412;2022-09-03T06:34:14;6.80;;;3.90;;
8349;SDS011;60699;48.946;8.412;2022-09-03T06:36:44;4.00;;;3.60;;
8349;SDS011;60699;48.946;8.412;2022-09-03T06:39:11;4.20;;;3.30;;
8349;SDS011;60699;48.946;8.412;2022-09-03T06:41:38;4.20;;;3.90;;
8349;SDS011;60699;48.946;8.412;2022-09-03T06:44:05;4.43;;;3.20;;
8349;SDS011;60699;48.946;8.412;2022-09-03T06:46:35;5.17;;;4.77;;
8349;SDS011;60699;48.946;8.412;2022-09-03T06:49:03;4.37;;;3.97;;
8349;SDS011;60699;48.946;8.412;2022-09-03T06:51:31;5.27;;;4.77;;
8349;SDS011;60699;48.946;8.412;2022-09-03T06:54:00;4.63;;;4.17;;
8349;SDS011;60699;48.946;8.412;2022-09-03T06:56:27;5.33;;;4.03;;
8349;SDS011;60699;48.946;8.412;2022-09-03T06:58:55;4.77;;;4.37;;
8349;SDS011;60699;48.946;8.412;2022-09-03T07:01:23;5.30;;;4.80;;
8349;SDS011;60699;48.946;8.412;2022-09-03T07:03:51;6.17;;;5.57;;
8349;SDS011;60699;48.946;8.412;2022-09-03T07:06:20;6.57;;;4.50;;
8349;SDS011;60699;48.946;8.412;2022-09-03T07:08:47;4.23;;;3.93;;
8349;SDS011;60699;48.946;8.412;2022-09-03T07:11:16;5.63;;;4.90;;
8349;SDS011;60699;48.946;8.412;2022-09-03T07:13:44;9.20;;;5.10;;
8349;SDS011;60699;48.946;8.412;2022-09-03T07:16:13;4.70;;;4.30;;
8349;SDS011;60699;48.946;8.412;2022-09-03T07:18:40;4.90;;;4.40;;
8349;SDS011;60699;48.946;8.412;2022-09-03T07:21:08;5.83;;;4.20;;
8349;SDS011;60699;48.946;8.412;2022-09-03T07:23:36;4.00;;;3.60;;
8349;SDS011;60699;48.946;8.412;2022-09-03T07:26:05;4.80;;;4.30;;
8349;SDS011;60699;48.946;8.412;2022-09-03T07:28:34;4.70;;;4.30;;
8349;SDS011;60699;48.946;8.412;2022-09-03T07:31:03;5.23;;;4.73;;
8349;SDS011;60699;48.946;8.412;2022-09-03T07:33:30;4.50;;;4.10;;
8349;SDS011;60699;48.946;8.412;2022-09-03T07:36:00;4.60;;;4.17;;
8349;SDS011;60699;48.946;8.412;2022-09-03T07:38:28;4.83;;;4.23;;
8349;SDS011;60699;48.946;8.412;2022-09-03T07:40:56;4.00;;;3.70;;
8349;SDS011;60699;48.946;8.412;2022-09-03T07:43:24;4.97;;;4.50;;
8349;SDS011;60699;48.946;8.412;2022-09-03T07:45:52;5.93;;;5.10;;
8349;SDS011;60699;48.946;8.412;2022-09-03T07:48:21;6.40;;;4.93;;
8349;SDS011;60699;48.946;8.412;2022-09-03T07:50:48;6.00;;;4.60;;
8349;SDS011;60699;48.946;8.412;2022-09-03T07:53:15;5.03;;;4.63;;
8349;SDS011;60699;48.946;8.412;2022-09-03T07:55:44;5.77;;;4.63;;
8349;SDS011;60699;48.946;8.412;2022-09-03T07:58:12;4.40;;;4.00;;
8349;SDS011;60699;48.946;8.412;2022-09-03T08:00:39;5.20;;;4.70;;
8349;SDS011;60699;48.946;8.412;2022-09-03T08:03:07;5.87;;;4.97;;
8349;SDS011;60699;48.946;8.412;2022-09-03T08:05:35;6.50;;;4.77;;
8349;SDS011;60699;48.946;8.412;2022-09-03T08:08:02;5.43;;;4.87;;
8349;SDS011;60699;48.946;8.412;2022-09-03T08:10:30;6.27;;;5.40;;
8349;SDS011;60699;48.946;8.412;2022-09-03T08:12:59;7.07;;;4.83;;
8349;SDS011;60699;48.946;8.412;2022-09-03T08:15:29;5.60;;;4.70;;
8349;SDS011;60699;48.946;8.412;2022-09-03T08:17:56;8.90;;;5.40;;
8349;SDS011;60699;48.946;8.412;2022-09-03T08:20:25;5.70;;;5.10;;
8349;SDS011;60699;48.946;8.412;2022-09-03T08:22:58;4.57;;;4.17;;
8349;SDS011;60699;48.946;8.412;2022-09-03T08:25:26;5.97;;;5.03;;
8349;SDS011;60699;48.946;8.412;2022-09-03T08:27:53;5.10;;;4.60;;
8349;SDS011;60699;48.946;8.412;2022-09-03T08:30:20;5.17;;;4.30;;
8349;SDS011;60699;48.946;8.412;2022-09-03T08:32:48;4.13;;;3.83;;
8349;SDS011;60699;48.946;8.412;2022-09-03T08:35:16;7.33;;;5.00;;
8349;SDS011;60699;48.946;8.412;2022-09-03T08:37:44;5.93;;;4.80;;
8349;SDS011;60699;48.946;8.412;2022-09-03T08:40:13;5.07;;;4.00;;
8349;SDS011;60699;48.946;8.412;2022-09-03T08:42:44;5.23;;;4.30;;
8349;SDS011;60699;48.946;8.412;2022-09-03T08:45:14;4.93;;;4.27;;
8349;SDS011;60699;48.946;8.412;2022-09-03T08:47:43;4.30;;;3.90;;
8349;SDS011;60699;48.946;8.412;2022-09-03T08:50:12;4.50;;;4.07;;
8349;SDS011;60699;48.946;8.412;2022-09-03T08:52:45;4.93;;;3.80;;
8349;SDS011;60699;48.946;8.412;2022-09-03T08:55:15;5.13;;;4.63;;
8349;SDS011;60699;48.946;8.412;2022-09-03T08:57:45;4.30;;;3.90;;
8349;SDS011;60699;48.946;8.412;2022-09-03T09:00:13;5.47;;;3.90;;
8349;SDS011;60699;48.946;8.412;2022-09-03T09:02:43;3.97;;;3.67;;
8349;SDS011;60699;48.946;8.412;2022-09-03T09:05:15;4.17;;;3.70;;
8349;SDS011;60699;48.946;8.412;2022-09-03T09:07:45;4.30;;;3.33;;
8349;SDS011;60699;48.946;8.412;2022-09-03T09:10:15;3.53;;;3.20;;
8349;SDS011;60699;48.946;8.412;2022-09-03T09:12:46;3.17;;;2.87;;
8349;SDS011;60699;48.946;8.412;2022-09-03T09:15:16;3.77;;;3.53;;
8349;SDS011;60699;48.946;8.412;2022-09-03T09:17:48;4.70;;;3.50;;
8349;SDS011;60699;48.946;8.412;2022-09-03T09:20:18;3.83;;;3.50;;
8349;SDS011;60699;48.946;8.412;2022-09-03T09:22:50;3.20;;;2.70;;
8349;SDS011;60699;48.946;8.412;2022-09-03T09:25:19;5.00;;;3.70;;
8349;SDS011;60699;48.946;8.412;2022-09-03T09:27:47;3.73;;;3.30;;
8349;SDS011;60699;48.946;8.412;2022-09-03T09:30:17;3.50;;;3.20;;
8349;SDS011;60699;48.946;8.412;2022-09-03T09:32:44;4.17;;;3.87;;
8349;SDS011;60699;48.946;8.412;2022-09-03T09:35:12;4.97;;;3.23;;
8349;SDS011;60699;48.946;8.412;2022-09-03T09:40:27;4.00;;;3.70;;
8349;SDS011;60699;48.946;8.412;2022-09-03T09:43:03;4.53;;;4.10;;
8349;SDS011;60699;48.946;8.412;2022-09-03T09:45:31;4.10;;;3.80;;
8349;SDS011;60699;48.946;8.412;2022-09-03T09:47:58;4.00;;;3.40;;
8349;SDS011;60699;48.946;8.412;2022-09-03T09:50:25;4.30;;;3.40;;
8349;SDS011;60699;48.946;8.412;2022-09-03T09:52:59;3.77;;;3.47;;
8349;SDS011;60699;48.946;8.412;2022-09-03T09:55:30;4.00;;;3.70;;
8349;SDS011;60699;48.946;8.412;2022-09-03T09:58:03;6.07;;;4.13;;
8349;SDS011;60699;48.946;8.412;2022-09-03T10:00:33;4.67;;;4.20;;
8349;SDS011;60699;48.946;8.412;2022-09-03T10:03:05;5.30;;;4.77;;
8349;SDS011;60699;48.946;8.412;2022-09-03T10:05:32;5.33;;;4.80;;
8349;SDS011;60699;48.946;8.412;2022-09-03T10:08:02;5.10;;;4.40;;
8349;SDS011;60699;48.946;8.412;2022-09-03T10:10:32;5.27;;;4.37;;
8349;SDS011;60699;48.946;8.412;2022-09-03T10:13:02;4.57;;;4.17;;
8349;SDS011;60699;48.946;8.412;2022-09-03T10:15:32;3.90;;;3.50;;
8349;SDS011;60699;48.946;8.412;2022-09-03T10:18:04;4.80;;;4.43;;
8349;SDS011;60699;48.946;8.412;2022-09-03T10:20:33;4.50;;;4.17;;
8349;SDS011;60699;48.946;8.412;2022-09-03T10:23:07;3.40;;;3.20;;
8349;SDS011;60699;48.946;8.412;2022-09-03T10:25:38;4.80;;;4.40;;
8349;SDS011;60699;48.946;8.412;2022-09-03T10:28:11;5.17;;;4.40;;
8349;SDS011;60699;48.946;8.412;2022-09-03T10:30:43;5.20;;;4.10;;
8349;SDS011;60699;48.946;8.412;2022-09-03T10:33:15;4.37;;;3.97;;
8349;SDS011;60699;48.946;8.412;2022-09-03T10:35:45;4.47;;;4.07;;
8349;SDS011;60699;48.946;8.412;2022-09-03T10:38:17;4.23;;;3.90;;
8349;SDS011;60699;48.946;8.412;2022-09-03T10:40:48;5.03;;;4.50;;
8349;SDS011;60699;48.946;8.412;2022-09-03T10:43:21;4.00;;;3.60;;
8349;SDS011;60699;48.946;8.412;2022-09-03T10:45:55;4.00;;;3.70;;
8349;SDS011;60699;48.946;8.412;2022-09-03T10:48:29;4.50;;;4.10;;
8349;SDS011;60699;48.946;8.412;2022-09-03T10:51:03;4.40;;;3.67;;
8349;SDS011;60699;48.946;8.412;2022-09-03T10:53:36;4.00;;;3.70;;
8349;SDS011;60699;48.946;8.412;2022-09-03T10:56:08;4.47;;;3.83;;
8349;SDS011;60699;48.946;8.412;2022-09-03T10:58:41;5.20;;;3.70;;
8349;SDS011;60699;48.946;8.412;2022-09-03T11:01:13;3.57;;;3.27;;
8349;SDS011;60699;48.946;8.412;2022-09-03T11:03:47;3.47;;;3.17;;
8349;SDS011;60699;48.946;8.412;2022-09-03T11:06:17;6.23;;;5.73;;
8349;SDS011;60699;48.946;8.412;2022-09-03T11:08:47;4.47;;;3.93;;
8349;SDS011;60699;48.946;8.412;2022-09-03T11:11:19;5.03;;;4.53;;
8349;SDS011;60699;48.946;8.412;2022-09-03T11:13:50;4.87;;;4.37;;
8349;SDS011;60699;48.946;8.412;2022-09-03T11:16:19;6.50;;;4.13;;
8349;SDS011;60699;48.946;8.412;2022-09-03T11:18:50;4.43;;;4.13;;
8349;SDS011;60699;48.946;8.412;2022-09-03T11:21:19;4.37;;;3.97;;
8349;SDS011;60699;48.946;8.412;2022-09-03T11:23:48;4.87;;;4.47;;
8349;SDS011;60699;48.946;8.412;2022-09-03T11:26:18;4.83;;;4.43;;
8349;SDS011;60699;48.946;8.412;2022-09-03T11:28:49;4.57;;;4.17;;
8349;SDS011;60699;48.946;8.412;2022-09-03T11:31:22;4.60;;;4.27;;
8349;SDS011;60699;48.946;8.412;2022-09-03T11:33:53;4.63;;;4.00;;
8349;SDS011;60699;48.946;8.412;2022-09-03T11:36:22;4.10;;;3.70;;
8349;SDS011;60699;48.946;8.412;2022-09-03T11:38:50;4.90;;;4.50;;
8349;SDS011;60699;48.946;8.412;2022-09-03T11:41:23;4.53;;;4.00;;
8349;SDS011;60699;48.946;8.412;2022-09-03T11:43:52;5.23;;;4.50;;
8349;SDS011;60699;48.946;8.412;2022-09-03T11:46:28;4.50;;;4.10;;
8349;SDS011;60699;48.946;8.412;2022-09-03T11:49:08;6.03;;;4.10;;
8349;SDS011;60699;48.946;8.412;2022-09-03T11:51:36;4.10;;;3.60;;
8349;SDS011;60699;48.946;8.412;2022-09-03T11:54:06;4.50;;;4.10;;
8349;SDS011;60699;48.946;8.412;2022-09-03T11:57:01;5.60;;;5.10;;
8349;SDS011;60699;48.946;8.412;2022-09-03T11:59:29;5.43;;;4.20;;
8349;SDS011;60699;48.946;8.412;2022-09-03T12:01:57;5.30;;;4.70;;
8349;SDS011;60699;48.946;8.412;2022-09-03T12:04:29;6.33;;;4.10;;
8349;SDS011;60699;48.946;8.412;2022-09-03T12:09:58;4.70;;;4.30;;
8349;SDS011;60699;48.946;8.412;2022-09-03T12:12:39;6.37;;;4.13;;
8349;SDS011;60699;48.946;8.412;2022-09-03T12:15:13;3.00;;;2.80;;
8349;SDS011;60699;48.946;8.412;2022-09-03T12:17:47;4.40;;;3.80;;
8349;SDS011;60699;48.946;8.412;2022-09-03T12:20:36;4.40;;;3.50;;
8349;SDS011;60699;48.946;8.412;2022-09-03T12:23:03;3.83;;;3.53;;
8349;SDS011;60699;48.946;8.412;2022-09-03T12:25:31;3.27;;;2.97;;
8349;SDS011;60699;48.946;8.412;2022-09-03T12:28:00;2.63;;;2.43;;
8349;SDS011;60699;48.946;8.412;2022-09-03T12:30:34;3.03;;;2.50;;
8349;SDS011;60699;48.946;8.412;2022-09-03T12:33:04;3.50;;;2.87;;
8349;SDS011;60699;48.946;8.412;2022-09-03T12:35:31;2.67;;;2.43;;
8349;SDS011;60699;48.946;8.412;2022-09-03T12:37:58;2.70;;;2.50;;
8349;SDS011;60699;48.946;8.412;2022-09-03T12:40:26;2.70;;;2.50;;
8349;SDS011;60699;48.946;8.412;2022-09-03T12:42:53;3.97;;;2.70;;
8349;SDS011;60699;48.946;8.412;2022-09-03T12:45:23;4.40;;;3.10;;
8349;SDS011;60699;48.946;8.412;2022-09-03T12:47:51;3.90;;;3.20;;
8349;SDS011;60699;48.946;8.412;2022-09-03T12:50:18;3.07;;;2.87;;
8349;SDS011;60699;48.946;8.412;2022-09-03T12:52:46;3.40;;;3.10;;
8349;SDS011;60699;48.946;8.412;2022-09-03T12:55:17;3.20;;;2.90;;
8349;SDS011;60699;48.946;8.412;2022-09-03T12:57:47;3.73;;;3.43;;
8349;SDS011;60699;48.946;8.412;2022-09-03T13:00:16;4.13;;;3.73;;
8349;SDS011;60699;48.946;8.412;2022-09-03T13:02:46;4.40;;;3.20;;
8349;SDS011;60699;48.946;8.412;2022-09-03T13:05:15;9.47;;;4.50;;
8349;SDS011;60699;48.946;8.412;2022-09-03T13:07:44;3.53;;;3.20;;
8349;SDS011;60699;48.946;8.412;2022-09-03T13:10:15;3.70;;;3.40;;
8349;SDS011;60699;48.946;8.412;2022-09-03T13:12:47;3.00;;;2.60;;
8349;SDS011;60699;48.946;8.412;2022-09-03T13:15:16;4.00;;;2.30;;
8349;SDS011;60699;48.946;8.412;2022-09-03T13:17:54;2.80;;;2.60;;
8349;SDS011;60699;48.946;8.412;2022-09-03T13:20:26;2.77;;;2.30;;
8349;SDS011;60699;48.946;8.412;2022-09-03T13:22:59;1.93;;;1.80;;
8349;SDS011;60699;48.946;8.412;2022-09-03T13:25:29;2.20;;;2.00;;
8349;SDS011;60699;48.946;8.412;2022-09-03T13:27:58;2.50;;;2.30;;
8349;SDS011;60699;48.946;8.412;2022-09-03T13:30:29;2.87;;;2.67;;
8349;SDS011;60699;48.946;8.412;2022-09-03T13:33:00;1.80;;;1.70;;
8349;SDS011;60699;48.946;8.412;2022-09-03T13:35:29;2.50;;;2.00;;
8349;SDS011;60699;48.946;8.412;2022-09-03T13:38:02;1.50;;;1.40;;
8349;SDS011;60699;48.946;8.412;2022-09-03T13:40:32;1.93;;;1.83;;
8349;SDS011;60699;48.946;8.412;2022-09-03T13:43:02;1.50;;;1.40;;
8349;SDS011;60699;48.946;8.412;2022-09-03T13:45:30;1.70;;;1.60;;
8349;SDS011;60699;48.946;8.412;2022-09-03T13:48:05;1.60;;;1.50;;
8349;SDS011;60699;48.946;8.412;2022-09-03T13:50:53;2.50;;;1.77;;
8349;SDS011;60699;48.946;8.412;2022-09-03T13:53:27;1.40;;;1.23;;
8349;SDS011;60699;48.946;8.412;2022-09-03T13:55:59;1.70;;;1.60;;
8349;SDS011;60699;48.946;8.412;2022-09-03T13:58:29;1.60;;;1.50;;
8349;SDS011;60699;48.946;8.412;2022-09-03T14:01:03;1.50;;;1.40;;
8349;SDS011;60699;48.946;8.412;2022-09-03T14:03:35;1.47;;;1.37;;
8349;SDS011;60699;48.946;8.412;2022-09-03T14:06:06;1.30;;;1.20;;
8349;SDS011;60699;48.946;8.412;2022-09-03T14:08:39;1.30;;;1.20;;
8349;SDS011;60699;48.946;8.412;2022-09-03T14:11:13;1.40;;;1.30;;
8349;SDS011;60699;48.946;8.412;2022-09-03T14:13:47;1.30;;;1.20;;
8349;SDS011;60699;48.946;8.412;2022-09-03T14:16:19;1.73;;;1.27;;
8349;SDS011;60699;48.946;8.412;2022-09-03T14:18:53;1.33;;;1.23;;
8349;SDS011;60699;48.946;8.412;2022-09-03T14:21:23;1.07;;;1.00;;
8349;SDS011;60699;48.946;8.412;2022-09-03T14:23:54;1.43;;;1.23;;
8349;SDS011;60699;48.946;8.412;2022-09-03T14:26:26;2.73;;;1.30;;
8349;SDS011;60699;48.946;8.412;2022-09-03T14:28:57;2.23;;;1.30;;
8349;SDS011;60699;48.946;8.412;2022-09-03T14:31:27;1.47;;;1.37;;
8349;SDS011;60699;48.946;8.412;2022-09-03T14:34:02;1.30;;;1.20;;
8349;SDS011;60699;48.946;8.412;2022-09-03T14:36:33;1.23;;;1.13;;
8349;SDS011;60699;48.946;8.412;2022-09-03T14:39:16;1.30;;;1.20;;
8349;SDS011;60699;48.946;8.412;2022-09-03T14:41:55;1.30;;;1.20;;
8349;SDS011;60699;48.946;8.412;2022-09-03T14:44:26;1.80;;;1.70;;
8349;SDS011;60699;48.946;8.412;2022-09-03T14:47:02;1.43;;;1.33;;
8349;SDS011;60699;48.946;8.412;2022-09-03T14:52:26;1.33;;;1.23;;
8349;SDS011;60699;48.946;8.412;2022-09-03T14:55:10;1.57;;;1.47;;
8349;SDS011;60699;48.946;8.412;2022-09-03T14:57:43;1.10;;;1.10;;
8349;SDS011;60699;48.946;8.412;2022-09-03T15:00:14;1.30;;;1.20;;
8349;SDS011;60699;48.946;8.412;2022-09-03T15:02:47;1.30;;;1.20;;
8349;SDS011;60699;48.946;8.412;2022-09-03T15:05:20;2.97;;;2.67;;
8349;SDS011;60699;48.946;8.412;2022-09-03T15:07:55;1.60;;;1.50;;
8349;SDS011;60699;48.946;8.412;2022-09-03T15:10:25;7.47;;;2.90;;
8349;SDS011;60699;48.946;8.412;2022-09-03T15:12:54;2.37;;;2.13;;
8349;SDS011;60699;48.946;8.412;2022-09-03T15:15:23;1.67;;;1.57;;
8349;SDS011;60699;48.946;8.412;2022-09-03T15:17:54;4.90;;;3.30;;
8349;SDS011;60699;48.946;8.412;2022-09-03T15:23:15;3.70;;;2.37;;
8349;SDS011;60699;48.946;8.412;2022-09-03T15:28:32;3.07;;;1.80;;
8349;SDS011;60699;48.946;8.412;2022-09-03T15:31:09;1.50;;;1.40;;